createdAt,value
2017-03-06T00:01:02.285Z,995.54
2017-03-06T00:02:15.353Z,995.57
2017-03-06T00:03:28.049Z,995.59
2017-03-06T00:04:41.114Z,995.57
2017-03-06T00:05:54.233Z,995.54
2017-03-06T00:07:07.310Z,995.52
2017-03-06T00:08:20.355Z,995.57
2017-03-06T00:09:33.429Z,995.56
2017-03-06T00:10:46.475Z,995.52
2017-03-06T00:11:59.543Z,995.55
2017-03-06T00:13:12.609Z,995.51
2017-03-06T00:14:25.738Z,995.46
2017-03-06T00:15:38.823Z,995.5
2017-03-06T00:16:51.551Z,995.5
2017-03-06T00:18:04.640Z,995.45
2017-03-06T00:19:17.321Z,995.45
2017-03-06T00:20:29.985Z,995.47
2017-03-06T00:21:43.065Z,995.5
2017-03-06T00:22:56.105Z,995.44
2017-03-06T00:24:09.252Z,995.49
2017-03-06T00:25:22.325Z,995.43
2017-03-06T00:26:35.247Z,995.5
2017-03-06T00:27:48.321Z,995.48
2017-03-06T00:29:00.985Z,995.52
2017-03-06T00:30:14.033Z,995.54
2017-03-06T00:31:27.101Z,995.49
2017-03-06T00:32:39.420Z,995.51
2017-03-06T00:33:52.096Z,995.52
2017-03-06T00:35:05.167Z,995.48
2017-03-06T00:36:18.214Z,995.44
2017-03-06T00:37:31.335Z,995.47
2017-03-06T00:38:44.402Z,995.49
2017-03-06T00:39:57.515Z,995.5
2017-03-06T00:41:10.223Z,995.49
2017-03-06T00:42:23.582Z,995.49
2017-03-06T00:43:36.611Z,995.49
2017-03-06T00:44:49.753Z,995.46
2017-03-06T00:46:02.809Z,995.43
2017-03-06T00:47:15.472Z,995.44
2017-03-06T00:48:27.794Z,995.44
2017-03-06T00:49:40.915Z,995.46
2017-03-06T00:50:53.978Z,995.42
2017-03-06T00:52:07.033Z,995.41
2017-03-06T00:53:20.160Z,995.36
2017-03-06T00:54:33.274Z,995.36
2017-03-06T00:55:46.365Z,995.37
2017-03-06T00:56:59.435Z,995.36
2017-03-06T00:58:12.564Z,995.34
2017-03-06T00:59:25.278Z,995.3
2017-03-06T01:00:38.381Z,995.31
2017-03-06T01:01:51.425Z,995.3
2017-03-06T01:03:04.096Z,995.26
2017-03-06T01:04:17.193Z,995.22
2017-03-06T01:05:29.907Z,995.25
2017-03-06T01:06:42.561Z,995.26
2017-03-06T01:07:55.630Z,995.25
2017-03-06T01:09:08.680Z,995.26
2017-03-06T01:10:21.387Z,995.27
2017-03-06T01:11:34.461Z,995.22
2017-03-06T01:12:47.512Z,995.2
2017-03-06T01:14:00.609Z,995.2
2017-03-06T01:15:13.660Z,995.16
2017-03-06T01:16:26.699Z,995.18
2017-03-06T01:17:39.373Z,995.21
2017-03-06T01:18:52.447Z,995.2
2017-03-06T01:20:05.754Z,995.22
2017-03-06T01:21:18.862Z,995.14
2017-03-06T01:22:31.979Z,995.19
2017-03-06T01:23:45.070Z,995.19
2017-03-06T01:24:58.121Z,995.24
2017-03-06T01:26:10.745Z,995.24
2017-03-06T01:27:23.454Z,995.23
2017-03-06T01:28:36.501Z,995.26
2017-03-06T01:29:49.204Z,995.26
2017-03-06T01:31:02.232Z,995.21
2017-03-06T01:32:15.299Z,995.2
2017-03-06T01:33:27.983Z,995.18
2017-03-06T01:34:40.638Z,995.17
2017-03-06T01:35:53.733Z,995.19
2017-03-06T01:37:06.809Z,995.15
2017-03-06T01:38:19.875Z,995.18
2017-03-06T01:39:32.592Z,995.17
2017-03-06T01:40:45.320Z,995.12
2017-03-06T01:41:58.384Z,995.13
2017-03-06T01:43:11.475Z,995.08
2017-03-06T01:44:24.534Z,995.12
2017-03-06T01:45:37.587Z,995.2
2017-03-06T01:46:50.299Z,995.22
2017-03-06T01:48:02.984Z,995.28
2017-03-06T01:49:16.038Z,995.26
2017-03-06T01:50:29.139Z,995.24
2017-03-06T01:51:42.235Z,995.24
2017-03-06T01:52:55.278Z,995.2
2017-03-06T01:54:08.351Z,995.21
2017-03-06T01:55:21.410Z,995.17
2017-03-06T01:56:34.468Z,995.21
2017-03-06T01:57:47.830Z,995.13
2017-03-06T01:59:00.898Z,995.16
2017-03-06T02:00:13.952Z,995.13
2017-03-06T02:01:27.000Z,995.12
2017-03-06T02:02:39.685Z,995.13
2017-03-06T02:03:52.806Z,995.13
2017-03-06T02:05:05.888Z,995.11
2017-03-06T02:06:18.535Z,995.09
2017-03-06T02:07:31.230Z,995.12
2017-03-06T02:08:44.277Z,995.12
2017-03-06T02:09:57.343Z,995.13
2017-03-06T02:11:10.439Z,995.13
2017-03-06T02:12:23.539Z,995.09
2017-03-06T02:13:36.605Z,995.14
2017-03-06T02:14:49.701Z,995.14
2017-03-06T02:16:02.793Z,995.12
2017-03-06T02:17:15.843Z,995.13
2017-03-06T02:18:28.868Z,995.16
2017-03-06T02:19:42.165Z,995.15
2017-03-06T02:20:55.213Z,995.17
2017-03-06T02:22:08.280Z,995.11
2017-03-06T02:23:21.028Z,995.11
2017-03-06T02:24:33.665Z,995.12
2017-03-06T02:25:46.761Z,995.14
2017-03-06T02:26:59.814Z,995.12
2017-03-06T02:28:12.885Z,995.09
2017-03-06T02:29:25.952Z,995.07
2017-03-06T02:30:38.999Z,995.13
2017-03-06T02:31:52.048Z,995.15
2017-03-06T02:33:05.095Z,995.13
2017-03-06T02:34:18.182Z,995.07
2017-03-06T02:35:31.231Z,995.1
2017-03-06T02:36:44.280Z,995.07
2017-03-06T02:37:57.349Z,995.12
2017-03-06T02:39:10.444Z,995.08
2017-03-06T02:40:23.496Z,995.08
2017-03-06T02:41:36.536Z,995.11
2017-03-06T02:42:49.603Z,995.1
2017-03-06T02:44:02.677Z,995.13
2017-03-06T02:45:15.744Z,995.07
2017-03-06T02:46:29.076Z,995.05
2017-03-06T02:47:42.193Z,995.03
2017-03-06T02:48:55.236Z,995.04
2017-03-06T02:50:08.328Z,995.05
2017-03-06T02:51:21.399Z,995.07
2017-03-06T02:52:34.491Z,995.06
2017-03-06T02:53:47.573Z,995.05
2017-03-06T02:55:00.643Z,995.07
2017-03-06T02:56:13.287Z,995.1
2017-03-06T02:57:26.336Z,995.08
2017-03-06T02:58:38.630Z,995.13
2017-03-06T02:59:51.316Z,995.12
2017-03-06T03:01:04.366Z,995.13
2017-03-06T03:02:17.466Z,995.09
2017-03-06T03:03:30.529Z,995.09
2017-03-06T03:04:43.578Z,995.11
2017-03-06T03:05:56.253Z,995.15
2017-03-06T03:07:08.902Z,995.14
2017-03-06T03:08:21.991Z,995.14
2017-03-06T03:09:35.041Z,995.09
2017-03-06T03:10:48.103Z,995.1
2017-03-06T03:12:01.239Z,995.12
2017-03-06T03:13:13.907Z,995.13
2017-03-06T03:14:26.999Z,995.14
2017-03-06T03:15:39.695Z,995.11
2017-03-06T03:16:52.366Z,995.13
2017-03-06T03:18:05.430Z,995.12
2017-03-06T03:19:18.487Z,995.1
2017-03-06T03:20:31.578Z,995.09
2017-03-06T03:21:44.634Z,995.09
2017-03-06T03:22:57.416Z,995.07
2017-03-06T03:24:10.469Z,995.1
2017-03-06T03:25:23.530Z,995.07
2017-03-06T03:26:36.583Z,995.09
2017-03-06T03:27:49.650Z,995.03
2017-03-06T03:29:02.328Z,995.04
2017-03-06T03:30:15.251Z,995.07
2017-03-06T03:31:28.324Z,995.09
2017-03-06T03:32:41.430Z,995.09
2017-03-06T03:33:54.485Z,995.07
2017-03-06T03:35:07.547Z,995.06
2017-03-06T03:36:20.266Z,995.04
2017-03-06T03:37:32.952Z,995.1
2017-03-06T03:38:45.992Z,995.08
2017-03-06T03:39:59.067Z,995.09
2017-03-06T03:41:11.757Z,995.08
2017-03-06T03:42:24.822Z,995.06
2017-03-06T03:43:37.856Z,995.07
2017-03-06T03:44:50.925Z,995.1
2017-03-06T03:46:04.019Z,995.02
2017-03-06T03:47:16.742Z,995.08
2017-03-06T03:48:29.405Z,995.05
2017-03-06T03:49:42.479Z,995.07
2017-03-06T03:50:55.553Z,995.06
2017-03-06T03:52:08.924Z,995.03
2017-03-06T03:53:21.618Z,995.02
2017-03-06T03:54:34.672Z,995.06
2017-03-06T03:55:47.730Z,995.05
2017-03-06T03:57:00.855Z,995.02
2017-03-06T03:58:13.905Z,995.02
2017-03-06T03:59:27.004Z,995.04
2017-03-06T04:00:39.698Z,995.06
2017-03-06T04:01:52.414Z,995.04
2017-03-06T04:03:05.310Z,995.06
2017-03-06T04:04:18.358Z,995.05
2017-03-06T04:05:31.479Z,995.11
2017-03-06T04:06:44.175Z,995.05
2017-03-06T04:07:57.264Z,995.08
2017-03-06T04:09:10.309Z,995.07
2017-03-06T04:10:23.380Z,995.05
2017-03-06T04:11:36.435Z,995.02
2017-03-06T04:12:49.504Z,995.04
2017-03-06T04:14:02.590Z,995.06
2017-03-06T04:15:15.647Z,995.04
2017-03-06T04:16:28.760Z,995.06
2017-03-06T04:17:41.810Z,994.99
2017-03-06T04:18:54.502Z,995.03
2017-03-06T04:20:07.179Z,995.03
2017-03-06T04:21:19.469Z,995.01
2017-03-06T04:22:32.564Z,995.02
2017-03-06T04:23:45.239Z,995.02
2017-03-06T04:24:58.285Z,995
2017-03-06T04:26:11.336Z,995.02
2017-03-06T04:27:24.402Z,995
2017-03-06T04:28:37.423Z,995.01
2017-03-06T04:29:50.522Z,994.99
2017-03-06T04:31:03.582Z,995.01
2017-03-06T04:32:16.660Z,995.01
2017-03-06T04:33:29.711Z,995.01
2017-03-06T04:34:42.383Z,995.09
2017-03-06T04:35:55.473Z,995.07
2017-03-06T04:37:08.149Z,995.06
2017-03-06T04:38:21.285Z,995.08
2017-03-06T04:39:33.941Z,995.1
2017-03-06T04:40:47.011Z,995.09
2017-03-06T04:42:00.098Z,995.09
2017-03-06T04:43:13.148Z,995.05
2017-03-06T04:44:26.198Z,995.06
2017-03-06T04:45:39.318Z,995.04
2017-03-06T04:46:52.003Z,995.11
2017-03-06T04:48:04.703Z,995.07
2017-03-06T04:49:17.774Z,995.11
2017-03-06T04:50:30.870Z,995.06
2017-03-06T04:51:43.565Z,995.09
2017-03-06T04:52:56.645Z,995.11
2017-03-06T04:54:09.714Z,995.08
2017-03-06T04:55:22.761Z,995.11
2017-03-06T04:56:35.832Z,995.05
2017-03-06T04:57:48.855Z,995.09
2017-03-06T04:59:01.946Z,995.11
2017-03-06T05:00:14.613Z,995.14
2017-03-06T05:01:27.664Z,995.1
2017-03-06T05:02:40.363Z,995.08
2017-03-06T05:03:53.446Z,995.13
2017-03-06T05:05:06.528Z,995.08
2017-03-06T05:06:19.599Z,995.12
2017-03-06T05:07:32.658Z,995.06
2017-03-06T05:08:45.704Z,995.1
2017-03-06T05:09:58.851Z,995.11
2017-03-06T05:11:11.558Z,995.06
2017-03-06T05:12:24.652Z,995.11
2017-03-06T05:13:37.777Z,995.1
2017-03-06T05:14:50.843Z,995.14
2017-03-06T05:16:03.543Z,995.09
2017-03-06T05:17:16.658Z,995.13
2017-03-06T05:18:29.704Z,995.08
2017-03-06T05:19:42.650Z,995.1
2017-03-06T05:20:55.701Z,995.1
2017-03-06T05:22:08.796Z,995.14
2017-03-06T05:23:21.870Z,995.14
2017-03-06T05:24:34.938Z,995.09
2017-03-06T05:25:47.996Z,995.12
2017-03-06T05:27:01.068Z,995.07
2017-03-06T05:28:14.102Z,995.11
2017-03-06T05:29:27.140Z,995.06
2017-03-06T05:30:39.440Z,995.11
2017-03-06T05:31:52.526Z,995.1
2017-03-06T05:33:05.609Z,995.14
2017-03-06T05:34:18.630Z,995.14
2017-03-06T05:35:31.701Z,995.14
2017-03-06T05:36:44.749Z,995.14
2017-03-06T05:37:57.823Z,995.14
2017-03-06T05:39:10.863Z,995.09
2017-03-06T05:40:23.921Z,995.18
2017-03-06T05:41:36.975Z,995.14
2017-03-06T05:42:50.021Z,995.15
2017-03-06T05:44:03.113Z,995.11
2017-03-06T05:45:16.231Z,995.17
2017-03-06T05:46:29.301Z,995.15
2017-03-06T05:47:41.873Z,995.18
2017-03-06T05:48:54.925Z,995.15
2017-03-06T05:50:08.018Z,995.19
2017-03-06T05:51:21.110Z,995.16
2017-03-06T05:52:34.163Z,995.13
2017-03-06T05:53:47.252Z,995.13
2017-03-06T05:55:00.331Z,995.12
2017-03-06T05:56:13.376Z,995.14
2017-03-06T05:57:26.425Z,995.17
2017-03-06T05:58:39.121Z,995.12
2017-03-06T05:59:51.793Z,995.11
2017-03-06T06:01:04.902Z,995.13
2017-03-06T06:02:17.981Z,995.08
2017-03-06T06:03:31.334Z,995.13
2017-03-06T06:04:44.425Z,995.12
2017-03-06T06:05:57.110Z,995.11
2017-03-06T06:07:10.214Z,995.15
2017-03-06T06:08:22.865Z,995.11
2017-03-06T06:09:35.506Z,995.13
2017-03-06T06:10:47.826Z,995.16
2017-03-06T06:12:00.894Z,995.17
2017-03-06T06:13:13.994Z,995.15
2017-03-06T06:14:26.665Z,995.15
2017-03-06T06:15:39.756Z,995.14
2017-03-06T06:16:52.807Z,995.15
2017-03-06T06:18:05.871Z,995.15
2017-03-06T06:19:18.945Z,995.13
2017-03-06T06:20:31.641Z,995.13
2017-03-06T06:21:44.737Z,995.08
2017-03-06T06:22:57.823Z,995.1
2017-03-06T06:24:10.924Z,995.19
2017-03-06T06:25:23.248Z,995.18
2017-03-06T06:26:36.327Z,995.16
2017-03-06T06:27:49.398Z,995.23
2017-03-06T06:29:02.068Z,995.16
2017-03-06T06:30:15.128Z,995.2
2017-03-06T06:31:28.211Z,995.14
2017-03-06T06:32:41.310Z,995.19
2017-03-06T06:33:54.379Z,995.2
2017-03-06T06:35:07.473Z,995.23
2017-03-06T06:36:20.515Z,995.25
2017-03-06T06:37:33.582Z,995.24
2017-03-06T06:38:46.274Z,995.24
2017-03-06T06:39:59.378Z,995.26
2017-03-06T06:41:11.670Z,995.28
2017-03-06T06:42:24.788Z,995.29
2017-03-06T06:43:37.836Z,995.29
2017-03-06T06:44:50.941Z,995.31
2017-03-06T06:46:04.012Z,995.36
2017-03-06T06:47:17.349Z,995.33
2017-03-06T06:48:30.428Z,995.33
2017-03-06T06:49:43.523Z,995.3
2017-03-06T06:50:56.595Z,995.31
2017-03-06T06:52:09.639Z,995.33
2017-03-06T06:53:22.739Z,995.29
2017-03-06T06:54:35.822Z,995.32
2017-03-06T06:55:48.904Z,995.29
2017-03-06T06:57:01.988Z,995.29
2017-03-06T06:58:15.047Z,995.29
2017-03-06T06:59:28.093Z,995.32
2017-03-06T07:00:41.150Z,995.32
2017-03-06T07:01:54.211Z,995.32
2017-03-06T07:03:06.878Z,995.29
2017-03-06T07:04:20.213Z,995.31
2017-03-06T07:05:33.313Z,995.31
2017-03-06T07:06:46.362Z,995.27
2017-03-06T07:07:59.429Z,995.28
2017-03-06T07:09:12.496Z,995.33
2017-03-06T07:10:25.592Z,995.31
2017-03-06T07:11:38.651Z,995.32
2017-03-06T07:12:51.717Z,995.33
2017-03-06T07:14:04.767Z,995.31
2017-03-06T07:15:17.088Z,995.28
2017-03-06T07:16:30.184Z,995.23
2017-03-06T07:17:42.855Z,995.26
2017-03-06T07:18:55.899Z,995.22
2017-03-06T07:20:08.934Z,995.22
2017-03-06T07:21:21.980Z,995.21
2017-03-06T07:22:34.661Z,995.15
2017-03-06T07:23:47.736Z,995.16
2017-03-06T07:25:00.778Z,995.13
2017-03-06T07:26:13.804Z,995.11
2017-03-06T07:27:26.885Z,995.11
2017-03-06T07:28:39.590Z,995.13
2017-03-06T07:29:52.663Z,995.1
2017-03-06T07:31:05.751Z,995.11
2017-03-06T07:32:18.832Z,995.13
2017-03-06T07:33:31.897Z,995.07
2017-03-06T07:34:44.975Z,995.06
2017-03-06T07:35:58.034Z,995.08
2017-03-06T07:37:10.715Z,995.02
2017-03-06T07:38:23.785Z,995.07
2017-03-06T07:39:36.879Z,995.03
2017-03-06T07:40:49.527Z,995.03
2017-03-06T07:42:02.215Z,995.06
2017-03-06T07:43:14.917Z,995.01
2017-03-06T07:44:28.013Z,995
2017-03-06T07:45:41.080Z,995
2017-03-06T07:46:53.773Z,995.04
2017-03-06T07:48:06.854Z,995.03
2017-03-06T07:49:19.573Z,995
2017-03-06T07:50:32.669Z,995.02
2017-03-06T07:51:45.365Z,995
2017-03-06T07:52:58.416Z,994.98
2017-03-06T07:54:11.478Z,995
2017-03-06T07:55:24.565Z,994.96
2017-03-06T07:56:37.647Z,995.01
2017-03-06T07:57:49.935Z,994.98
2017-03-06T07:59:02.622Z,994.98
2017-03-06T08:00:15.702Z,994.98
2017-03-06T08:01:28.760Z,994.95
2017-03-06T08:02:41.844Z,994.98
2017-03-06T08:03:54.939Z,994.99
2017-03-06T08:05:07.640Z,995.01
2017-03-06T08:06:20.694Z,995.02
2017-03-06T08:07:33.790Z,995.04
2017-03-06T08:08:46.844Z,995.01
2017-03-06T08:09:59.920Z,995.06
2017-03-06T08:11:12.203Z,995.07
2017-03-06T08:12:25.290Z,995.08
2017-03-06T08:13:38.008Z,995.1
2017-03-06T08:14:51.110Z,995.15
2017-03-06T08:16:04.206Z,995.1
2017-03-06T08:17:16.895Z,995.15
2017-03-06T08:18:29.991Z,995.1
2017-03-06T08:19:42.545Z,995.14
2017-03-06T08:20:55.216Z,995.11
2017-03-06T08:22:08.324Z,995.11
2017-03-06T08:23:21.428Z,995.12
2017-03-06T08:24:34.532Z,995.13
2017-03-06T08:25:47.613Z,995.1
2017-03-06T08:27:00.714Z,995.09
2017-03-06T08:28:13.795Z,995.09
2017-03-06T08:29:26.490Z,995.06
2017-03-06T08:30:39.572Z,995.08
2017-03-06T08:31:52.649Z,995.02
2017-03-06T08:33:05.745Z,995.03
2017-03-06T08:34:18.819Z,995.01
2017-03-06T08:35:31.915Z,995
2017-03-06T08:36:44.982Z,994.99
2017-03-06T08:37:57.306Z,995
2017-03-06T08:39:10.395Z,994.93
2017-03-06T08:40:23.524Z,994.94
2017-03-06T08:41:36.841Z,994.94
2017-03-06T08:42:49.913Z,994.93
2017-03-06T08:44:03.061Z,994.94
2017-03-06T08:45:15.732Z,994.93
2017-03-06T08:46:28.807Z,994.92
2017-03-06T08:47:41.875Z,994.95
2017-03-06T08:48:54.587Z,994.93
2017-03-06T08:50:07.692Z,994.95
2017-03-06T08:51:20.364Z,994.93
2017-03-06T08:52:32.672Z,994.98
2017-03-06T08:53:45.757Z,994.98
2017-03-06T08:54:58.825Z,994.94
2017-03-06T08:56:11.516Z,994.96
2017-03-06T08:57:24.591Z,994.93
2017-03-06T08:58:36.893Z,994.95
2017-03-06T08:59:49.585Z,994.95
2017-03-06T09:01:02.656Z,994.94
2017-03-06T09:02:15.346Z,994.97
2017-03-06T09:03:28.417Z,995.02
2017-03-06T09:04:41.532Z,995.03
2017-03-06T09:05:54.601Z,995.08
2017-03-06T09:07:07.654Z,995.06
2017-03-06T09:08:20.307Z,995.12
2017-03-06T09:09:32.966Z,995.14
2017-03-06T09:10:45.321Z,995.12
2017-03-06T09:11:58.415Z,995.15
2017-03-06T09:13:11.139Z,995.09
2017-03-06T09:14:24.204Z,995.1
2017-03-06T09:15:37.231Z,995.11
2017-03-06T09:16:50.372Z,995.09
2017-03-06T09:18:03.050Z,995.09
2017-03-06T09:19:15.373Z,995.08
2017-03-06T09:20:28.467Z,995.07
2017-03-06T09:21:41.176Z,995.09
2017-03-06T09:22:53.869Z,995.05
2017-03-06T09:24:06.915Z,995.08
2017-03-06T09:25:20.013Z,995.01
2017-03-06T09:26:33.064Z,995.04
2017-03-06T09:27:46.090Z,995.02
2017-03-06T09:28:59.157Z,994.99
2017-03-06T09:30:12.236Z,994.99
2017-03-06T09:31:25.347Z,994.96
2017-03-06T09:32:38.447Z,994.95
2017-03-06T09:33:51.513Z,994.94
2017-03-06T09:35:04.235Z,994.94
2017-03-06T09:36:17.301Z,994.95
2017-03-06T09:37:29.592Z,994.95
2017-03-06T09:38:42.318Z,994.94
2017-03-06T09:39:55.386Z,994.97
2017-03-06T09:41:08.067Z,994.97
2017-03-06T09:42:20.793Z,994.95
2017-03-06T09:43:33.462Z,994.95
2017-03-06T09:44:46.607Z,994.97
2017-03-06T09:45:59.703Z,994.94
2017-03-06T09:47:12.788Z,994.94
2017-03-06T09:48:25.440Z,994.92
2017-03-06T09:49:38.510Z,994.91
2017-03-06T09:50:50.834Z,994.92
2017-03-06T09:52:03.923Z,994.94
2017-03-06T09:53:17.001Z,994.95
2017-03-06T09:54:29.690Z,994.9
2017-03-06T09:55:42.343Z,994.97
2017-03-06T09:56:55.403Z,994.99
2017-03-06T09:58:08.485Z,995
2017-03-06T09:59:21.224Z,994.98
2017-03-06T10:00:34.302Z,995.03
2017-03-06T10:01:47.376Z,994.99
2017-03-06T10:03:00.490Z,994.98
2017-03-06T10:04:13.569Z,994.99
2017-03-06T10:05:26.661Z,994.98
2017-03-06T10:06:39.745Z,994.97
2017-03-06T10:07:52.790Z,994.96
2017-03-06T10:09:05.450Z,994.98
2017-03-06T10:10:18.486Z,994.98
2017-03-06T10:11:30.789Z,994.94
2017-03-06T10:12:43.835Z,994.92
2017-03-06T10:13:56.898Z,994.95
2017-03-06T10:15:09.977Z,994.92
2017-03-06T10:16:23.043Z,994.92
2017-03-06T10:17:35.745Z,994.97
2017-03-06T10:18:48.454Z,994.97
2017-03-06T10:20:01.514Z,994.94
2017-03-06T10:21:14.581Z,994.93
2017-03-06T10:22:27.680Z,994.91
2017-03-06T10:23:40.391Z,994.86
2017-03-06T10:24:53.070Z,994.89
2017-03-06T10:26:05.755Z,994.85
2017-03-06T10:27:18.844Z,994.85
2017-03-06T10:28:31.928Z,994.86
2017-03-06T10:29:45.003Z,994.85
2017-03-06T10:30:57.719Z,994.85
2017-03-06T10:32:09.998Z,994.81
2017-03-06T10:33:23.083Z,994.82
2017-03-06T10:34:36.208Z,994.79
2017-03-06T10:35:48.904Z,994.84
2017-03-06T10:37:01.974Z,994.82
2017-03-06T10:38:15.023Z,994.85
2017-03-06T10:39:28.098Z,994.86
2017-03-06T10:40:40.787Z,994.89
2017-03-06T10:41:53.861Z,994.9
2017-03-06T10:43:06.579Z,994.9
2017-03-06T10:44:19.634Z,994.93
2017-03-06T10:45:32.700Z,994.93
2017-03-06T10:46:45.744Z,994.98
2017-03-06T10:47:58.837Z,994.96
2017-03-06T10:49:11.553Z,994.96
2017-03-06T10:50:23.858Z,994.92
2017-03-06T10:51:36.929Z,994.92
2017-03-06T10:52:50.000Z,994.92
2017-03-06T10:54:03.110Z,994.88
2017-03-06T10:55:15.812Z,994.87
2017-03-06T10:56:28.904Z,994.83
2017-03-06T10:57:42.004Z,994.8
2017-03-06T10:58:55.129Z,994.78
2017-03-06T11:00:07.849Z,994.82
2017-03-06T11:01:20.964Z,994.88
2017-03-06T11:02:34.016Z,994.86
2017-03-06T11:03:46.739Z,994.84
2017-03-06T11:04:59.804Z,994.89
2017-03-06T11:06:12.896Z,994.88
2017-03-06T11:07:25.580Z,994.92
2017-03-06T11:08:38.646Z,994.93
2017-03-06T11:09:51.711Z,994.89
2017-03-06T11:11:04.784Z,994.96
2017-03-06T11:12:17.860Z,994.92
2017-03-06T11:13:30.954Z,994.89
2017-03-06T11:14:43.642Z,994.91
2017-03-06T11:15:56.736Z,994.94
2017-03-06T11:17:09.815Z,994.93
2017-03-06T11:18:22.869Z,994.97
2017-03-06T11:19:35.935Z,994.94
2017-03-06T11:20:49.029Z,994.95
2017-03-06T11:22:02.097Z,994.97
2017-03-06T11:23:15.185Z,994.95
2017-03-06T11:24:28.256Z,994.93
2017-03-06T11:25:41.338Z,994.95
2017-03-06T11:26:54.033Z,994.95
2017-03-06T11:28:07.144Z,994.95
2017-03-06T11:29:19.800Z,994.96
2017-03-06T11:30:32.493Z,994.91
2017-03-06T11:31:45.156Z,994.9
2017-03-06T11:32:57.886Z,994.88
2017-03-06T11:34:10.561Z,994.85
2017-03-06T11:35:23.627Z,994.84
2017-03-06T11:36:36.326Z,994.86
2017-03-06T11:37:49.419Z,994.86
2017-03-06T11:39:02.495Z,994.83
2017-03-06T11:40:15.565Z,994.85
2017-03-06T11:41:28.612Z,994.85
2017-03-06T11:42:41.677Z,994.82
2017-03-06T11:43:54.778Z,994.87
2017-03-06T11:45:07.886Z,994.83
2017-03-06T11:46:20.939Z,994.78
2017-03-06T11:47:33.977Z,994.78
2017-03-06T11:48:46.674Z,994.78
2017-03-06T11:49:59.798Z,994.78
2017-03-06T11:51:12.894Z,994.79
2017-03-06T11:52:25.623Z,994.79
2017-03-06T11:53:38.695Z,994.77
2017-03-06T11:54:51.382Z,994.78
2017-03-06T11:56:04.481Z,994.78
2017-03-06T11:57:17.869Z,994.77
2017-03-06T11:58:30.941Z,994.81
2017-03-06T11:59:43.637Z,994.76
2017-03-06T12:00:56.768Z,994.79
2017-03-06T12:02:09.888Z,994.77
2017-03-06T12:03:22.578Z,994.77
2017-03-06T12:04:35.656Z,994.8
2017-03-06T12:05:48.730Z,994.8
2017-03-06T12:07:01.837Z,994.75
2017-03-06T12:08:14.911Z,994.76
2017-03-06T12:09:27.989Z,994.71
2017-03-06T12:10:41.078Z,994.71
2017-03-06T12:11:54.152Z,994.68
2017-03-06T12:13:06.872Z,994.65
2017-03-06T12:14:19.970Z,994.63
2017-03-06T12:15:32.283Z,994.65
2017-03-06T12:16:44.955Z,994.62
2017-03-06T12:17:58.032Z,994.59
2017-03-06T12:19:11.108Z,994.53
2017-03-06T12:20:24.201Z,994.5
2017-03-06T12:21:37.291Z,994.5
2017-03-06T12:22:50.341Z,994.56
2017-03-06T12:24:03.411Z,994.58
2017-03-06T12:25:16.105Z,994.51
2017-03-06T12:26:28.032Z,994.5
2017-03-06T12:27:41.120Z,994.5
2017-03-06T12:28:54.198Z,994.51
2017-03-06T12:30:07.266Z,994.49
2017-03-06T12:31:19.962Z,994.49
2017-03-06T12:32:33.085Z,994.42
2017-03-06T12:33:46.180Z,994.4
2017-03-06T12:34:59.234Z,994.37
2017-03-06T12:36:12.320Z,994.32
2017-03-06T12:37:25.395Z,994.35
2017-03-06T12:38:38.067Z,994.34
2017-03-06T12:39:51.134Z,994.4
2017-03-06T12:41:04.222Z,994.42
2017-03-06T12:42:17.296Z,994.38
2017-03-06T12:43:30.414Z,994.4
2017-03-06T12:44:43.458Z,994.34
2017-03-06T12:45:56.113Z,994.32
2017-03-06T12:47:08.786Z,994.28
2017-03-06T12:48:21.880Z,994.27
2017-03-06T12:49:34.943Z,994.29
2017-03-06T12:50:47.629Z,994.3
2017-03-06T12:52:00.836Z,994.23
2017-03-06T12:53:13.916Z,994.25
2017-03-06T12:54:27.017Z,994.27
2017-03-06T12:55:40.129Z,994.27
2017-03-06T12:56:53.180Z,994.32
2017-03-06T12:58:06.269Z,994.35
2017-03-06T12:59:18.967Z,994.34
2017-03-06T13:00:31.616Z,994.34
2017-03-06T13:01:44.705Z,994.34
2017-03-06T13:02:57.796Z,994.32
2017-03-06T13:04:10.850Z,994.35
2017-03-06T13:05:23.167Z,994.32
2017-03-06T13:06:36.287Z,994.34
2017-03-06T13:07:48.609Z,994.33
2017-03-06T13:09:01.687Z,994.35
2017-03-06T13:10:14.781Z,994.36
2017-03-06T13:11:27.833Z,994.37
2017-03-06T13:12:40.152Z,994.36
2017-03-06T13:13:53.194Z,994.41
2017-03-06T13:15:05.914Z,994.38
2017-03-06T13:16:18.606Z,994.42
2017-03-06T13:17:31.663Z,994.35
2017-03-06T13:18:44.995Z,994.38
2017-03-06T13:19:56.923Z,994.4
2017-03-06T13:21:09.221Z,994.39
2017-03-06T13:22:22.319Z,994.47
2017-03-06T13:23:35.035Z,994.51
2017-03-06T13:24:48.157Z,994.49
2017-03-06T13:26:00.876Z,994.44
2017-03-06T13:27:13.955Z,994.42
2017-03-06T13:28:27.068Z,994.4
2017-03-06T13:29:39.757Z,994.39
2017-03-06T13:30:52.462Z,994.38
2017-03-06T13:32:04.759Z,994.34
2017-03-06T13:33:17.482Z,994.36
2017-03-06T13:34:30.569Z,994.4
2017-03-06T13:35:43.640Z,994.39
2017-03-06T13:36:56.743Z,994.41
2017-03-06T13:38:09.429Z,994.36
2017-03-06T13:39:22.531Z,994.3
2017-03-06T13:40:35.201Z,994.27
2017-03-06T13:41:47.892Z,994.25
2017-03-06T13:43:00.974Z,994.26
2017-03-06T13:44:14.058Z,994.25
2017-03-06T13:45:27.140Z,994.3
2017-03-06T13:46:40.255Z,994.26
2017-03-06T13:47:52.974Z,994.26
2017-03-06T13:49:06.041Z,994.24
2017-03-06T13:50:18.323Z,994.25
2017-03-06T13:51:31.358Z,994.25
2017-03-06T13:52:44.440Z,994.23
2017-03-06T13:53:57.535Z,994.15
2017-03-06T13:55:09.846Z,994.16
2017-03-06T13:56:22.929Z,994.18
2017-03-06T13:57:35.987Z,994.15
2017-03-06T13:58:49.087Z,994.19
2017-03-06T14:00:01.754Z,994.18
2017-03-06T14:01:14.811Z,994.16
2017-03-06T14:02:27.903Z,994.19
2017-03-06T14:03:40.968Z,994.16
2017-03-06T14:04:53.650Z,994.18
2017-03-06T14:06:06.737Z,994.18
2017-03-06T14:07:19.830Z,994.14
2017-03-06T14:08:32.899Z,994.15
2017-03-06T14:09:45.609Z,994.16
2017-03-06T14:10:58.295Z,994.18
2017-03-06T14:12:11.375Z,994.18
2017-03-06T14:13:24.434Z,994.16
2017-03-06T14:14:37.113Z,994.19
2017-03-06T14:15:50.215Z,994.23
2017-03-06T14:17:03.296Z,994.21
2017-03-06T14:18:16.371Z,994.22
2017-03-06T14:19:29.046Z,994.22
2017-03-06T14:20:41.735Z,994.22
2017-03-06T14:21:54.421Z,994.3
2017-03-06T14:23:07.484Z,994.29
2017-03-06T14:24:20.579Z,994.27
2017-03-06T14:25:33.680Z,994.3
2017-03-06T14:26:46.768Z,994.31
2017-03-06T14:27:59.096Z,994.36
2017-03-06T14:29:12.206Z,994.35
2017-03-06T14:30:25.261Z,994.35
2017-03-06T14:31:38.380Z,994.39
2017-03-06T14:32:51.068Z,994.4
2017-03-06T14:34:03.726Z,994.42
2017-03-06T14:35:16.786Z,994.4
2017-03-06T14:36:29.533Z,994.39
2017-03-06T14:37:41.829Z,994.38
2017-03-06T14:38:54.934Z,994.38
2017-03-06T14:40:08.029Z,994.32
2017-03-06T14:41:21.097Z,994.37
2017-03-06T14:42:33.813Z,994.36
2017-03-06T14:43:46.909Z,994.37
2017-03-06T14:44:59.981Z,994.41
2017-03-06T14:46:12.657Z,994.38
2017-03-06T14:47:25.723Z,994.38
2017-03-06T14:48:38.826Z,994.37
2017-03-06T14:49:51.896Z,994.37
2017-03-06T14:51:04.967Z,994.38
2017-03-06T14:52:18.063Z,994.41
2017-03-06T14:53:31.180Z,994.43
2017-03-06T14:54:44.226Z,994.4
2017-03-06T14:55:57.302Z,994.39
2017-03-06T14:57:09.997Z,994.42
2017-03-06T14:58:23.084Z,994.37
2017-03-06T14:59:36.152Z,994.37
2017-03-06T15:00:49.259Z,994.38
2017-03-06T15:02:02.319Z,994.4
2017-03-06T15:03:14.995Z,994.41
2017-03-06T15:04:28.095Z,994.38
2017-03-06T15:05:41.142Z,994.4
2017-03-06T15:06:54.256Z,994.4
2017-03-06T15:08:07.403Z,994.39
2017-03-06T15:09:20.481Z,994.39
2017-03-06T15:10:33.540Z,994.41
2017-03-06T15:11:46.596Z,994.44
2017-03-06T15:12:59.293Z,994.42
2017-03-06T15:14:11.985Z,994.43